Time;durP1;ratioP1;P1;durP2;ratioP2;P2;SDS_P1;SDS_P2;PMS_P1;PMS_P2;Temp;Humidity;BMP_temperature;BMP_pressure;BME280_temperature;BME280_humidity;BME280_pressure;Samples;Min_cycle;Max_cycle;Signal;HPM_P1;HPM_P2
2022/05/25 00:00:55;;;;;;;1.30;1.00;;;;;;;9.48;100.00;100466.97;5030958;28;20415;-79
2022/05/25 00:03:30;;;;;;;1.20;1.02;;;;;;;9.59;100.00;100466.94;5039821;28;20428;-79
2022/05/25 00:06:06;;;;;;;1.30;1.10;;;;;;;9.59;100.00;100470.44;5034509;28;20780;-79
2022/05/25 00:08:41;;;;;;;2.30;1.10;;;;;;;9.62;100.00;100475.31;5029214;28;20791;-79
2022/05/25 00:11:16;;;;;;;1.52;1.08;;;;;;;9.66;100.00;100483.75;5045735;28;20417;-79
2022/05/25 00:13:49;;;;;;;1.80;1.15;;;;;;;9.68;100.00;100476.94;5035642;28;20431;-79
2022/05/25 00:16:23;;;;;;;2.10;1.10;;;;;;;9.70;100.00;100487.53;5062970;28;20426;-79
2022/05/25 00:21:47;;;;;;;1.60;1.20;;;;;;;9.75;100.00;100494.84;5040348;28;20429;-79
2022/05/25 00:24:20;;;;;;;1.40;1.10;;;;;;;9.72;100.00;100503.53;5023590;28;20426;-78
2022/05/25 00:26:55;;;;;;;1.30;1.10;;;;;;;9.64;100.00;100507.63;5032184;28;20429;-79
2022/05/25 00:29:28;;;;;;;2.78;1.15;;;;;;;9.56;100.00;100495.47;5028487;28;20784;-79
2022/05/25 00:32:01;;;;;;;1.40;1.10;;;;;;;9.67;100.00;100501.69;5024581;28;20425;-79
2022/05/25 00:34:35;;;;;;;1.27;1.10;;;;;;;9.70;100.00;100504.63;5027580;28;20438;-79
2022/05/25 00:37:08;;;;;;;1.60;1.23;;;;;;;9.62;100.00;100507.13;5026356;28;20453;-80
2022/05/25 00:39:41;;;;;;;3.55;1.17;;;;;;;9.64;100.00;100504.94;5024255;28;20454;-79
2022/05/25 00:42:16;;;;;;;1.98;1.30;;;;;;;9.68;100.00;100506.81;5057313;28;20415;-79
2022/05/25 00:44:49;;;;;;;1.38;1.10;;;;;;;9.66;100.00;100514.44;5024843;28;20436;-79
2022/05/25 00:47:23;;;;;;;1.50;1.10;;;;;;;9.66;100.00;100517.16;5021103;28;20415;-79
2022/05/25 00:49:56;;;;;;;1.70;1.20;;;;;;;9.76;100.00;100515.50;5019821;28;20415;-79
2022/05/25 00:52:30;;;;;;;1.23;1.10;;;;;;;9.77;100.00;100522.56;5037421;28;20438;-78
2022/05/25 00:55:06;;;;;;;1.50;1.20;;;;;;;9.83;100.00;100511.38;5025326;28;20427;-79
2022/05/25 00:57:44;;;;;;;1.35;1.10;;;;;;;9.87;100.00;100523.34;5019239;28;20423;-79
2022/05/25 01:00:20;;;;;;;1.50;1.20;;;;;;;9.84;100.00;100512.19;5022400;28;20428;-79
2022/05/25 01:02:59;;;;;;;1.55;1.05;;;;;;;9.90;100.00;100521.94;5020936;28;20420;-79
2022/05/25 01:05:38;;;;;;;1.60;1.10;;;;;;;9.87;100.00;100520.63;5038652;28;20446;-79
2022/05/25 01:08:27;;;;;;;1.33;1.20;;;;;;;9.91;100.00;100520.03;5026650;28;20430;-79
2022/05/25 01:11:17;;;;;;;2.03;1.33;;;;;;;9.87;100.00;100522.50;5028054;28;20419;-79
2022/05/25 01:13:59;;;;;;;1.63;1.30;;;;;;;9.92;100.00;100521.69;5025565;28;20426;-79
2022/05/25 01:16:38;;;;;;;1.67;1.20;;;;;;;9.95;100.00;100513.75;5028864;28;20423;-79
2022/05/25 01:19:30;;;;;;;1.70;1.30;;;;;;;10.03;100.00;100515.91;5024102;28;20441;-79
2022/05/25 01:22:20;;;;;;;1.87;1.37;;;;;;;9.94;100.00;100531.16;5023370;28;20436;-79
2022/05/25 01:25:05;;;;;;;2.30;1.50;;;;;;;10.02;100.00;100529.78;5052845;28;20415;-79
2022/05/25 01:27:42;;;;;;;2.27;1.60;;;;;;;9.99;100.00;100519.47;5016952;28;20905;-79
2022/05/25 01:30:19;;;;;;;1.75;1.45;;;;;;;9.97;100.00;100522.47;5024152;28;20461;-79
2022/05/25 01:33:13;;;;;;;3.38;1.73;;;;;;;9.95;100.00;100526.56;5026562;28;20431;-79
2022/05/25 01:35:51;;;;;;;2.15;1.55;;;;;;;10.01;100.00;100522.69;5026740;28;20525;-80
2022/05/25 01:38:26;;;;;;;2.43;1.67;;;;;;;9.96;100.00;100523.56;5034798;28;20456;-80
2022/05/25 01:41:01;;;;;;;1.95;1.50;;;;;;;10.02;100.00;100533.28;5026786;28;20410;-79
2022/05/25 01:43:39;;;;;;;2.60;1.67;;;;;;;10.02;100.00;100538.72;5023977;28;21031;-79
2022/05/25 01:46:19;;;;;;;2.20;1.60;;;;;;;10.04;100.00;100541.19;5025162;28;20431;-79
2022/05/25 01:48:55;;;;;;;2.33;1.60;;;;;;;10.05;100.00;100537.38;5023287;28;20423;-79
2022/05/25 01:51:34;;;;;;;2.70;1.80;;;;;;;10.03;100.00;100534.13;5044250;28;20423;-79
2022/05/25 01:54:10;;;;;;;2.60;1.77;;;;;;;10.03;100.00;100528.69;5021433;28;20431;-79
2022/05/25 01:56:48;;;;;;;2.33;1.73;;;;;;;9.97;100.00;100535.22;5019369;28;20760;-78
2022/05/25 01:59:21;;;;;;;3.78;1.90;;;;;;;9.81;100.00;100529.06;5014716;28;20420;-79
2022/05/25 02:04:47;;;;;;;2.58;1.70;;;;;;;9.80;100.00;100532.88;5057932;28;20427;-79
2022/05/25 02:07:40;;;;;;;2.63;1.83;;;;;;;9.77;100.00;100536.16;5031805;28;20430;-79
2022/05/25 02:10:29;;;;;;;2.20;1.70;;;;;;;9.72;100.00;100539.69;5031434;28;20430;-79
2022/05/25 02:13:26;;;;;;;2.83;1.90;;;;;;;9.68;100.00;100542.16;5030057;28;20424;-79
2022/05/25 02:16:05;;;;;;;2.33;1.73;;;;;;;9.65;100.00;100550.03;5024451;28;20967;-79
2022/05/25 02:18:42;;;;;;;3.00;1.90;;;;;;;9.58;100.00;100550.31;5021467;28;20423;-79
2022/05/25 02:21:21;;;;;;;3.35;1.95;;;;;;;9.52;100.00;100546.81;5056832;28;20431;-78
2022/05/25 02:23:58;;;;;;;2.63;1.98;;;;;;;9.54;100.00;100560.09;5031937;28;20427;-79
2022/05/25 02:26:30;;;;;;;3.05;1.92;;;;;;;9.53;100.00;100550.34;5047477;28;20424;-79
2022/05/25 02:29:07;;;;;;;2.60;1.90;;;;;;;9.46;100.00;100550.63;5020190;28;20438;-79
2022/05/25 02:31:45;;;;;;;3.58;2.00;;;;;;;9.45;100.00;100554.44;5057474;28;20431;-79
2022/05/25 02:34:21;;;;;;;2.97;1.88;;;;;;;9.48;100.00;100548.44;5022860;28;20424;-79
2022/05/25 02:36:57;;;;;;;3.08;2.03;;;;;;;9.34;100.00;100542.78;5058044;28;20451;-79
2022/05/25 02:39:30;;;;;;;3.53;2.05;;;;;;;9.45;100.00;100548.19;5029837;28;20422;-78
2022/05/25 02:42:12;;;;;;;3.33;2.00;;;;;;;9.35;100.00;100532.75;5025282;28;20427;-78
2022/05/25 02:44:45;;;;;;;3.95;2.20;;;;;;;9.39;100.00;100530.28;5020688;28;20433;-79
2022/05/25 02:47:21;;;;;;;2.60;1.98;;;;;;;9.38;100.00;100540.34;5028838;28;20440;-79
2022/05/25 02:49:55;;;;;;;3.95;2.20;;;;;;;9.22;100.00;100538.75;5023151;28;20432;-79
2022/05/25 02:52:29;;;;;;;3.30;2.00;;;;;;;9.25;100.00;100554.47;5024084;28;20434;-78
2022/05/25 02:55:02;;;;;;;3.05;2.05;;;;;;;9.16;100.00;100552.31;5026457;28;20435;-79
2022/05/25 02:57:35;;;;;;;3.05;2.13;;;;;;;9.18;100.00;100563.72;5021042;28;20431;-79
2022/05/25 03:00:10;;;;;;;4.18;2.20;;;;;;;9.21;100.00;100562.38;5028028;28;20924;-80
2022/05/25 03:02:43;;;;;;;3.33;2.33;;;;;;;9.22;100.00;100572.13;5025394;28;20756;-79
2022/05/25 03:05:13;;;;;;;3.35;2.10;;;;;;;9.24;100.00;100572.69;5027238;28;20431;-79
2022/05/25 03:07:47;;;;;;;2.83;2.13;;;;;;;9.18;100.00;100568.31;5032170;28;21044;-80
2022/05/25 03:10:21;;;;;;;2.92;2.05;;;;;;;9.30;100.00;100570.78;5027735;28;20427;-79
2022/05/25 03:12:54;;;;;;;3.10;2.22;;;;;;;9.26;100.00;100567.78;5021107;28;20792;-79
2022/05/25 03:15:27;;;;;;;4.03;2.35;;;;;;;9.29;100.00;100572.66;5028193;28;20442;-79
2022/05/25 03:18:00;;;;;;;4.88;2.00;;;;;;;9.32;100.00;100565.88;5023266;28;20415;-79
2022/05/25 03:20:35;;;;;;;2.92;2.00;;;;;;;9.34;100.00;100572.66;5027992;28;20433;-79
2022/05/25 03:23:04;;;;;;;3.50;2.20;;;;;;;9.36;100.00;100565.06;5032021;28;20856;-79
2022/05/25 03:25:37;;;;;;;3.33;2.30;;;;;;;9.40;100.00;100567.22;5029415;28;20431;-79
2022/05/25 03:28:10;;;;;;;2.95;2.05;;;;;;;9.47;100.00;100568.56;5053421;28;20419;-79
2022/05/25 03:30:46;;;;;;;3.00;2.03;;;;;;;9.52;100.00;100567.75;5028260;28;20982;-78
2022/05/25 03:33:15;;;;;;;3.60;2.30;;;;;;;9.56;100.00;100579.69;5025679;28;20428;-79
2022/05/25 03:35:50;;;;;;;3.10;2.25;;;;;;;9.57;100.00;100578.59;5026755;28;20423;-79
2022/05/25 03:38:23;;;;;;;3.20;2.20;;;;;;;9.66;100.00;100576.94;5046731;28;20426;-79
2022/05/25 03:40:57;;;;;;;3.33;2.20;;;;;;;9.65;100.00;100583.47;5025451;28;20419;-78
2022/05/25 03:43:33;;;;;;;3.28;2.20;;;;;;;9.67;100.00;100597.59;5030061;28;20422;-79
2022/05/25 03:46:07;;;;;;;3.53;2.28;;;;;;;9.70;100.00;100583.44;5029790;28;20419;-79
2022/05/25 03:48:40;;;;;;;3.40;2.10;;;;;;;9.80;100.00;100589.94;5055828;28;20419;-79
2022/05/25 03:51:15;;;;;;;3.97;2.10;;;;;;;9.80;100.00;100589.94;5027822;28;20423;-79
2022/05/25 03:53:49;;;;;;;3.50;2.20;;;;;;;9.75;100.00;100590.78;5028372;28;20879;-80
2022/05/25 03:56:22;;;;;;;4.15;2.15;;;;;;;9.84;100.00;100599.97;5021780;28;20440;-78
2022/05/25 03:58:56;;;;;;;3.10;2.15;;;;;;;9.82;100.00;100594.00;5022640;28;20419;-79
2022/05/25 04:01:24;;;;;;;2.97;2.20;;;;;;;9.76;100.00;100599.72;5029306;28;20418;-79
2022/05/25 04:03:52;;;;;;;3.15;2.15;;;;;;;9.84;100.00;100601.88;5023534;28;20426;-80
2022/05/25 04:06:27;;;;;;;3.47;2.30;;;;;;;9.86;100.00;100608.69;5027415;28;20435;-79
2022/05/25 04:09:02;;;;;;;3.33;2.10;;;;;;;9.80;100.00;100598.91;5044907;28;20430;-79
2022/05/25 04:11:36;;;;;;;2.85;1.90;;;;;;;9.89;100.00;100607.31;5022286;28;20430;-79
2022/05/25 04:14:04;;;;;;;2.78;2.05;;;;;;;9.82;100.00;100613.03;5053778;28;21223;-79
2022/05/25 04:16:37;;;;;;;3.38;2.10;;;;;;;9.82;100.00;100614.94;5025076;28;20427;-79
2022/05/25 04:19:10;;;;;;;3.10;2.20;;;;;;;9.90;100.00;100622.50;5017025;28;20427;-79
2022/05/25 04:21:45;;;;;;;2.83;2.10;;;;;;;9.92;100.00;100623.06;5030643;28;20427;-79
2022/05/25 04:24:18;;;;;;;3.10;2.20;;;;;;;9.89;100.00;100610.03;5027616;28;20419;-79
2022/05/25 04:26:51;;;;;;;3.00;2.25;;;;;;;9.89;100.00;100612.75;5021513;28;20420;-79
2022/05/25 04:29:20;;;;;;;3.75;2.25;;;;;;;9.84;100.00;100612.75;5027282;28;20414;-78
2022/05/25 04:31:53;;;;;;;3.03;2.20;;;;;;;9.77;100.00;100612.25;5024752;28;20505;-79
2022/05/25 04:34:26;;;;;;;3.10;2.17;;;;;;;9.82;100.00;100613.03;5022991;28;20439;-79
2022/05/25 04:39:47;;;;;;;3.00;2.20;;;;;;;9.80;100.00;100625.28;5024474;28;20415;-79
2022/05/25 04:42:21;;;;;;;3.33;2.10;;;;;;;9.72;100.00;100604.09;5029360;28;20423;-79
2022/05/25 04:44:59;;;;;;;2.90;2.10;;;;;;;9.75;100.00;100620.66;5024733;28;20433;-79
2022/05/25 04:47:34;;;;;;;3.30;2.22;;;;;;;9.77;100.00;100625.81;5024270;28;20419;-79
2022/05/25 04:50:10;;;;;;;3.40;2.28;;;;;;;9.82;100.00;100631.25;5057894;28;20426;-79
2022/05/25 04:52:44;;;;;;;3.30;2.30;;;;;;;9.85;100.00;100631.50;5027758;28;20430;-79
2022/05/25 04:58:18;;;;;;;3.50;2.47;;;;;;;10.07;100.00;100626.81;5051697;28;20428;-79
2022/05/25 05:00:51;;;;;;;3.03;2.40;;;;;;;10.47;100.00;100630.50;5042973;28;20423;-79
2022/05/25 05:03:26;;;;;;;3.50;2.40;;;;;;;10.46;100.00;100621.50;5023136;28;20760;-79
2022/05/25 05:06:00;;;;;;;3.38;2.20;;;;;;;11.03;100.00;100635.56;5025126;28;20435;-79
2022/05/25 05:08:36;;;;;;;3.47;2.20;;;;;;;12.97;100.00;100632.84;5027042;28;20427;-80
2022/05/25 05:11:07;;;;;;;3.85;2.25;;;;;;;14.19;100.00;100632.88;5036064;28;20412;-79
2022/05/25 05:13:41;;;;;;;3.00;2.20;;;;;;;15.17;100.00;100623.28;5026917;28;20427;-79
2022/05/25 05:16:16;;;;;;;2.90;2.10;;;;;;;16.35;100.00;100626.72;5024761;28;20879;-80
2022/05/25 05:19:01;;;;;;;2.70;2.10;;;;;;;16.84;100.00;100632.91;5017563;28;20773;-79
2022/05/25 05:21:57;;;;;;;3.85;2.08;;;;;;;18.15;100.00;100620.81;5029792;28;20435;-80
2022/05/25 05:24:28;;;;;;;3.50;2.17;;;;;;;18.89;100.00;100617.72;5059722;28;20427;-79
2022/05/25 05:26:57;;;;;;;3.00;1.98;;;;;;;18.18;100.00;100620.94;5012287;28;20924;-79
2022/05/25 05:29:30;;;;;;;2.83;2.05;;;;;;;18.10;100.00;100624.53;5025780;28;20816;-80
2022/05/25 05:31:58;;;;;;;3.30;2.10;;;;;;;18.83;100.00;100619.84;5020546;28;20411;-81
2022/05/25 05:34:28;;;;;;;2.83;1.92;;;;;;;18.49;100.00;100621.72;5024330;28;20428;-80
2022/05/25 05:37:01;;;;;;;3.30;2.00;;;;;;;17.62;100.00;100623.78;5029941;28;20430;-80
2022/05/25 05:39:40;;;;;;;3.47;2.25;;;;;;;16.57;100.00;100629.38;5021481;28;20422;-80
2022/05/25 05:42:17;;;;;;;3.40;2.20;;;;;;;16.21;100.00;100621.38;5034989;28;20427;-80
2022/05/25 05:44:53;;;;;;;3.20;2.20;;;;;;;15.98;100.00;100626.97;5022879;28;20426;-80
2022/05/25 05:47:41;;;;;;;3.45;2.47;;;;;;;15.43;100.00;100628.94;5026666;28;20752;-79
2022/05/25 05:50:11;;;;;;;6.85;2.58;;;;;;;14.88;100.00;100640.16;5023334;28;20414;-79
2022/05/25 05:52:44;;;;;;;3.45;2.40;;;;;;;14.87;100.00;100639.34;5016611;28;20453;-79
2022/05/25 05:55:20;;;;;;;3.35;2.40;;;;;;;14.81;100.00;100648.00;5025523;28;20435;-80
2022/05/25 05:57:55;;;;;;;3.88;2.50;;;;;;;14.77;100.00;100640.38;5047884;28;20438;-79
2022/05/25 06:00:24;;;;;;;5.00;2.60;;;;;;;14.52;100.00;100633.53;5023943;28;20446;-80
2022/05/25 06:02:52;;;;;;;3.90;2.53;;;;;;;14.53;100.00;100646.13;5025790;28;20916;-79
2022/05/25 06:05:25;;;;;;;4.32;2.60;;;;;;;14.42;100.00;100647.47;5029059;28;20907;-80
2022/05/25 06:07:54;;;;;;;4.65;2.70;;;;;;;14.58;100.00;100643.28;5045464;28;20427;-79
2022/05/25 06:10:29;;;;;;;3.87;2.50;;;;;;;14.71;100.00;100641.63;5050338;28;20439;-78
2022/05/25 06:12:57;;;;;;;4.90;2.55;;;;;;;14.49;100.00;100644.31;5047324;28;20459;-79
2022/05/25 06:21:07;;;;;;;3.80;2.35;;;;;;;14.83;100.00;100660.28;5020342;28;20429;-80
2022/05/25 06:23:40;;;;;;;3.53;2.22;;;;;;;14.74;100.00;100660.19;5039978;28;20424;-79
2022/05/25 06:26:15;;;;;;;4.35;2.22;;;;;;;14.62;100.00;100641.56;5020233;28;20442;-79
2022/05/25 06:28:49;;;;;;;3.13;2.10;;;;;;;14.29;100.00;100649.91;5021316;28;20492;-79
2022/05/25 06:31:23;;;;;;;3.63;2.10;;;;;;;14.65;100.00;100651.06;5026245;28;20783;-79
2022/05/25 06:33:56;;;;;;;3.60;2.10;;;;;;;14.54;100.00;100652.38;5025726;28;20447;-78
2022/05/25 06:36:26;;;;;;;3.73;1.80;;;;;;;14.61;100.00;100653.59;5048173;28;20440;-79
2022/05/25 06:39:00;;;;;;;3.03;1.73;;;;;;;14.42;100.00;100669.34;5021466;28;20430;-78
2022/05/25 06:41:34;;;;;;;2.70;1.70;;;;;;;14.38;100.00;100665.63;5020914;28;20435;-78
2022/05/25 06:44:07;;;;;;;3.28;1.90;;;;;;;14.26;100.00;100666.91;5026933;28;20439;-79
2022/05/25 06:46:41;;;;;;;4.07;1.90;;;;;;;14.34;100.00;100679.09;4996658;28;20435;-79
2022/05/25 06:49:16;;;;;;;3.45;2.08;;;;;;;14.23;100.00;100666.72;4998853;28;20438;-80
2022/05/25 06:51:45;;;;;;;2.90;1.90;;;;;;;14.45;100.00;100676.97;5002295;28;20907;-79
2022/05/25 06:54:19;;;;;;;3.27;1.97;;;;;;;14.77;100.00;100666.97;5005494;28;20427;-79
2022/05/25 06:56:54;;;;;;;2.97;1.88;;;;;;;14.48;100.00;100676.34;5005098;28;20792;-79
2022/05/25 06:59:27;;;;;;;2.95;1.90;;;;;;;14.73;100.00;100677.72;5006356;28;21341;-79
2022/05/25 07:02:00;;;;;;;2.10;1.50;;;;;;;14.83;100.00;100678.63;5034726;28;20443;-78
2022/05/25 07:04:34;;;;;;;3.10;1.83;;;;;;;15.06;100.00;100674.00;5025499;28;20449;-79
2022/05/25 07:07:03;;;;;;;2.10;1.40;;;;;;;14.90;100.00;100679.00;5005105;28;20439;-79
2022/05/25 07:09:39;;;;;;;2.85;1.58;;;;;;;15.17;100.00;100669.88;5033901;28;21805;-79
2022/05/25 07:12:09;;;;;;;3.20;1.63;;;;;;;15.12;100.00;100672.75;5003184;28;20465;-80
2022/05/25 07:14:43;;;;;;;2.03;1.40;;;;;;;14.59;100.00;100675.00;5014820;28;20442;-80
2022/05/25 07:17:16;;;;;;;10.13;6.80;;;;;;;15.13;100.00;100677.94;5005450;28;20502;-80
2022/05/25 07:19:49;;;;;;;2.60;1.40;;;;;;;15.33;100.00;100675.00;5036202;28;20430;-80
2022/05/25 07:22:17;;;;;;;3.33;1.50;;;;;;;15.18;100.00;100676.16;5017079;28;20438;-80
2022/05/25 07:24:50;;;;;;;3.13;1.45;;;;;;;15.30;100.00;100693.69;5003476;28;20430;-82
2022/05/25 07:27:25;;;;;;;2.38;1.30;;;;;;;15.08;100.00;100685.44;5015638;28;20431;-79
2022/05/25 07:29:58;;;;;;;2.38;1.38;;;;;;;14.85;100.00;100690.09;5008443;28;20892;-80
2022/05/25 07:32:32;;;;;;;1.43;1.10;;;;;;;14.61;100.00;100697.44;5019456;28;20431;-81
2022/05/25 07:35:08;;;;;;;1.50;1.10;;;;;;;14.50;100.00;100700.66;5008850;28;20065;-79
2022/05/25 07:37:44;;;;;;;2.00;1.17;;;;;;;14.79;100.00;100708.59;5020960;28;20052;-80
2022/05/25 07:40:22;;;;;;;1.95;1.20;;;;;;;14.99;100.00;100695.56;5008888;28;20060;-80
2022/05/25 07:43:00;;;;;;;2.03;1.10;;;;;;;15.04;100.00;100701.72;5025970;28;20056;-81
2022/05/25 07:45:34;;;;;;;3.22;1.17;;;;;;;15.24;100.00;100692.19;5006387;28;20060;-79
2022/05/25 07:48:02;;;;;;;1.27;1.10;;;;;;;15.34;100.00;100704.84;5031444;28;20064;-81
2022/05/25 07:50:36;;;;;;;2.35;1.20;;;;;;;15.62;100.00;100693.75;5032635;28;20057;-82
2022/05/25 07:56:03;;;;;;;3.92;0.95;;;;;;;14.87;100.00;100712.50;5023346;28;20056;-80
2022/05/25 07:58:38;;;;;;;1.58;1.00;;;;;;;14.95;100.00;100711.78;5019355;28;20045;-81
2022/05/25 08:01:13;;;;;;;1.60;1.00;;;;;;;14.87;100.00;100707.03;5015505;28;20047;-81
2022/05/25 08:06:40;;;;;;;1.20;1.02;;;;;;;14.82;100.00;100705.22;5019915;28;20045;-81
2022/05/25 08:09:13;;;;;;;1.50;1.10;;;;;;;15.25;100.00;100704.78;5020708;28;20072;-80
2022/05/25 08:11:46;;;;;;;1.30;1.10;;;;;;;15.05;100.00;100708.00;5009246;28;20071;-81
2022/05/25 08:14:22;;;;;;;1.10;0.98;;;;;;;15.27;100.00;100707.22;5027272;28;20056;-81
2022/05/25 08:16:55;;;;;;;2.88;1.20;;;;;;;15.87;100.00;100702.44;5021856;28;20049;-80
2022/05/25 08:19:28;;;;;;;2.17;1.35;;;;;;;16.25;100.00;100705.53;5024727;28;20045;-80
2022/05/25 08:22:01;;;;;;;2.10;1.30;;;;;;;16.45;100.00;100697.84;5016934;28;20070;-80
2022/05/25 08:24:35;;;;;;;2.05;1.10;;;;;;;16.36;100.00;100697.00;5016903;28;20410;-83
2022/05/25 08:27:08;;;;;;;2.42;1.08;;;;;;;16.66;100.00;100698.06;5025092;28;20131;-80
2022/05/25 08:29:37;;;;;;;1.85;1.00;;;;;;;16.72;100.00;100685.75;5025005;28;20061;-82
2022/05/25 08:32:06;;;;;;;1.10;0.90;;;;;;;16.55;100.00;100683.00;5019520;28;20059;-81
2022/05/25 08:34:39;;;;;;;1.98;0.98;;;;;;;17.11;100.00;100689.56;5011874;28;20753;-80
2022/05/25 08:37:08;;;;;;;1.50;1.00;;;;;;;17.04;100.00;100694.72;5018113;28;20056;-81
2022/05/25 08:39:42;;;;;;;1.15;1.00;;;;;;;17.03;100.00;100686.78;4998034;28;20068;-81
2022/05/25 08:42:15;;;;;;;1.60;1.02;;;;;;;17.22;100.00;100680.97;4987303;28;20682;-82
2022/05/25 08:44:52;;;;;;;1.67;1.05;;;;;;;17.50;100.00;100689.69;4986631;28;20057;-80
2022/05/25 08:47:25;;;;;;;;;;;;;;;17.62;100.00;100683.47;4999780;28;20045;-81
2022/05/25 08:49:58;;;;;;;1.17;1.00;;;;;;;17.73;100.00;100682.00;4997082;28;20382;-81
2022/05/25 08:52:35;;;;;;;2.13;1.05;;;;;;;17.92;97.76;100678.88;4985360;28;20056;-81
2022/05/25 08:55:08;;;;;;;2.33;1.10;;;;;;;17.44;100.00;100682.72;5006117;28;20079;-80
2022/05/25 08:57:49;;;;;;;2.78;1.30;;;;;;;17.08;100.00;100679.22;5000275;28;20049;-81
2022/05/25 09:00:23;;;;;;;2.80;1.40;;;;;;;16.69;100.00;100678.16;4999943;28;20041;-80
2022/05/25 09:03:06;;;;;;;1.42;1.08;;;;;;;16.87;100.00;100686.44;5003433;28;20083;-81
2022/05/25 09:05:44;;;;;;;1.33;1.10;;;;;;;17.29;100.00;100687.59;4983831;28;20060;-81
2022/05/25 09:08:27;;;;;;;2.42;1.20;;;;;;;17.34;100.00;100689.34;4998900;28;20061;-81
2022/05/25 09:11:06;;;;;;;2.45;1.13;;;;;;;17.03;100.00;100692.28;5001477;28;20065;-81
2022/05/25 09:13:39;;;;;;;1.90;1.27;;;;;;;17.32;100.00;100680.63;5006015;28;20478;-80
2022/05/25 09:16:18;;;;;;;2.42;1.20;;;;;;;17.46;100.00;100695.00;4999450;28;20053;-81
2022/05/25 09:19:00;;;;;;;1.38;1.10;;;;;;;17.72;100.00;100688.66;5005629;28;20056;-81
2022/05/25 09:21:30;;;;;;;;;;;;;;;17.61;97.37;100684.63;5002789;28;20050;-80
2022/05/25 09:24:08;;;;;;;1.23;1.02;;;;;;;17.57;99.16;100687.22;4986567;28;20574;-82
2022/05/25 09:26:43;;;;;;;1.85;1.00;;;;;;;17.16;89.83;100691.31;5004288;28;20913;-81
2022/05/25 09:29:17;;;;;;;2.42;1.20;;;;;;;16.98;98.19;100691.31;4986627;28;20058;-81
2022/05/25 09:31:56;;;;;;;1.35;1.00;;;;;;;16.92;94.21;100684.38;5008570;28;20795;-83
2022/05/25 09:34:38;;;;;;;1.48;0.90;;;;;;;16.50;95.49;100686.69;5006561;28;20057;-82
2022/05/25 09:37:21;;;;;;;0.98;0.80;;;;;;;16.40;98.67;100687.81;4989292;28;20110;-83
2022/05/25 09:39:54;;;;;;;1.08;0.80;;;;;;;16.24;94.25;100692.94;4997374;28;20060;-83
2022/05/25 09:42:34;;;;;;;1.35;0.80;;;;;;;16.60;100.00;100682.84;4985914;28;20053;-85
2022/05/25 09:45:09;;;;;;;1.17;0.90;;;;;;;17.00;99.74;100685.50;4998081;28;20057;-83
2022/05/25 09:47:43;;;;;;;1.25;0.90;;;;;;;17.14;100.00;100677.91;5001962;28;20076;-81
2022/05/25 09:50:25;;;;;;;2.15;0.90;;;;;;;16.96;100.00;100696.34;4994788;28;20065;-82
2022/05/25 09:53:04;;;;;;;0.75;0.68;;;;;;;16.92;100.00;100684.38;5000113;28;20799;-82
2022/05/25 09:55:44;;;;;;;1.02;0.80;;;;;;;16.82;90.37;100684.63;4981504;28;20053;-81
2022/05/25 09:58:28;;;;;;;3.95;0.80;;;;;;;17.16;100.00;100686.63;4983837;28;21521;-82
2022/05/25 10:01:04;;;;;;;1.65;0.73;;;;;;;17.46;91.79;100686.75;5000410;28;20950;-83
2022/05/25 10:03:42;;;;;;;0.93;0.80;;;;;;;17.28;98.38;100694.22;5004189;28;20050;-81
2022/05/25 10:06:25;;;;;;;1.63;1.00;;;;;;;17.48;95.32;100687.25;5002787;28;20599;-82
2022/05/25 10:09:10;;;;;;;1.13;0.90;;;;;;;17.91;100.00;100692.94;4987214;28;20076;-82
2022/05/25 10:11:45;;;;;;;1.05;0.70;;;;;;;18.18;84.85;100687.03;4998334;28;20061;-82
2022/05/25 10:14:30;;;;;;;2.03;0.80;;;;;;;17.99;100.00;100689.38;4999679;28;20049;-81
2022/05/25 10:17:05;;;;;;;1.52;0.80;;;;;;;17.50;100.00;100698.72;4997715;28;22123;-81
2022/05/25 10:19:49;;;;;;;0.90;0.80;;;;;;;17.07;100.00;100688.59;4983889;28;20842;-81
2022/05/25 10:22:32;;;;;;;4.78;2.55;;;;;;;16.93;100.00;100690.66;4987106;28;20660;-83
2022/05/25 10:25:04;;;;;;;1.83;0.90;;;;;;;17.43;100.00;100686.63;5010739;28;20052;-82
2022/05/25 10:27:41;;;;;;;1.27;0.70;;;;;;;17.70;100.00;100679.09;5013290;28;20060;-82
2022/05/25 10:39:19;;;;;;;1.00;0.80;;;;;;;18.21;80.29;100668.25;5003814;28;20052;-81
2022/05/25 10:42:06;;;;;;;0.85;0.70;;;;;;;18.56;88.89;100657.84;4978261;28;20877;-82
2022/05/25 10:44:50;;;;;;;3.35;0.73;;;;;;;18.42;75.20;100654.50;5004724;28;20501;-83
2022/05/25 10:47:42;;;;;;;1.25;0.70;;;;;;;18.69;73.22;100665.00;5021360;28;20060;-83
2022/05/25 10:50:21;;;;;;;0.90;0.80;;;;;;;18.68;79.94;100673.63;5009141;28;20046;-82
2022/05/25 10:53:02;;;;;;;1.65;0.80;;;;;;;18.72;84.64;100662.75;5007745;28;20603;-82
2022/05/25 10:55:44;;;;;;;0.77;0.77;;;;;;;18.54;96.16;100668.38;5000010;28;20057;-81
2022/05/25 10:58:37;;;;;;;1.60;0.90;;;;;;;18.92;93.37;100655.63;5009599;28;20856;-82
2022/05/25 11:01:21;;;;;;;1.33;0.70;;;;;;;19.01;79.36;100670.97;5013463;28;20065;-82
2022/05/25 11:04:05;;;;;;;1.20;0.70;;;;;;;19.10;79.37;100654.34;5000611;28;20053;-81
2022/05/25 11:06:53;;;;;;;2.45;0.90;;;;;;;19.73;88.51;100666.38;4986422;28;20566;-81
2022/05/25 11:09:52;;;;;;;1.42;0.60;;;;;;;19.50;64.55;100664.00;4996018;28;20057;-81
2022/05/25 11:12:36;;;;;;;0.80;0.80;;;;;;;19.38;79.39;100651.00;5006043;28;20421;-81
2022/05/25 11:15:16;;;;;;;3.42;0.90;;;;;;;19.33;68.66;100649.25;5002115;28;20121;-81
2022/05/25 11:18:08;;;;;;;1.42;0.70;;;;;;;19.68;90.96;100648.09;5011092;28;20049;-82
2022/05/25 11:20:50;;;;;;;0.52;0.52;;;;;;;19.74;71.85;100654.19;4996274;28;20054;-83
2022/05/25 11:23:40;;;;;;;1.08;0.65;;;;;;;19.47;66.41;100648.13;5002045;28;20993;-81
2022/05/25 11:26:43;;;;;;;0.80;0.63;;;;;;;19.23;81.36;100657.97;4997531;28;20569;-83
2022/05/25 11:29:24;;;;;;;0.50;0.50;;;;;;;19.34;76.81;100647.31;4993907;28;20064;-82
2022/05/25 11:32:03;;;;;;;0.60;0.60;;;;;;;19.43;80.21;100647.19;4988415;28;20883;-82
2022/05/25 11:34:48;;;;;;;1.10;0.90;;;;;;;18.93;76.16;100655.28;5000704;28;20057;-81
2022/05/25 11:37:43;;;;;;;0.60;0.60;;;;;;;19.15;95.54;100653.31;4989472;28;20060;-81
2022/05/25 11:40:26;;;;;;;0.75;0.70;;;;;;;18.79;61.79;100658.28;5006033;28;20387;-82
2022/05/25 11:43:18;;;;;;;0.50;0.50;;;;;;;19.09;89.35;100649.97;5000707;28;20054;-82
2022/05/25 11:45:59;;;;;;;0.75;0.68;;;;;;;19.23;82.55;100652.44;5018891;28;20060;-82
2022/05/25 11:48:43;;;;;;;0.60;0.60;;;;;;;19.40;78.31;100653.41;5020141;28;20049;-81
2022/05/25 11:51:22;;;;;;;1.35;0.63;;;;;;;19.16;76.77;100647.47;5020945;28;20053;-81
2022/05/25 11:54:05;;;;;;;1.85;0.60;;;;;;;19.61;75.34;100654.16;5027197;28;20060;-81
2022/05/25 11:56:50;;;;;;;1.55;0.75;;;;;;;19.43;64.75;100647.19;5022985;28;20052;-81
2022/05/25 11:59:49;;;;;;;1.45;0.60;;;;;;;19.50;66.77;100633.66;5018104;28;20049;-81
2022/05/25 12:02:45;;;;;;;1.13;0.52;;;;;;;19.46;66.15;100630.78;5021314;28;21374;-81
2022/05/25 12:05:29;;;;;;;2.30;0.65;;;;;;;19.79;63.82;100621.63;5003451;28;20524;-82
2022/05/25 12:08:13;;;;;;;0.40;0.35;;;;;;;19.85;59.92;100630.53;5021509;28;20445;-84
2022/05/25 12:10:49;;;;;;;1.20;0.50;;;;;;;19.97;58.87;100618.66;5021950;28;20064;-82
2022/05/25 12:13:25;;;;;;;0.90;0.50;;;;;;;20.28;65.35;100631.88;5014423;28;20053;-81
2022/05/25 12:15:59;;;;;;;0.68;0.50;;;;;;;19.97;54.16;100630.53;5021170;28;20057;-82
2022/05/25 12:18:39;;;;;;;1.13;0.50;;;;;;;19.62;54.42;100630.13;5003941;28;20063;-82
2022/05/25 12:21:16;;;;;;;0.40;0.40;;;;;;;19.38;57.98;100631.69;5004044;28;20044;-82
2022/05/25 12:23:52;;;;;;;0.50;0.50;;;;;;;18.93;66.86;100624.97;5017177;28;20452;-82
2022/05/25 12:26:28;;;;;;;0.40;0.40;;;;;;;18.93;67.49;100630.47;5001842;28;20592;-82
2022/05/25 12:29:09;;;;;;;0.37;0.37;;;;;;;19.17;63.31;100621.50;5024455;28;20052;-82
2022/05/25 12:31:45;;;;;;;0.70;0.60;;;;;;;19.59;71.14;100614.25;5019525;28;20845;-81
2022/05/25 12:34:26;;;;;;;0.40;0.40;;;;;;;19.59;58.21;100612.28;5023683;28;20052;-82
2022/05/25 12:37:00;;;;;;;0.75;0.50;;;;;;;19.27;64.77;100611.19;5026046;28;20819;-81